sensor_id;sensor_type;location;lat;lon;timestamp;pressure;altitude;pressure_sealevel;temperature;humidity
6134;BME280;3098;42.678;23.364;2023-06-26T00:00:11;94753.41;;;19.77;100.00
6134;BME280;3098;42.678;23.364;2023-06-26T00:02:38;94564.22;;;18.56;100.00
6134;BME280;3098;42.678;23.364;2023-06-26T00:05:05;94738.78;;;19.78;100.00
6134;BME280;3098;42.678;23.364;2023-06-26T00:07:32;94749.59;;;19.82;100.00
6134;BME280;3098;42.678;23.364;2023-06-26T00:10:02;94709.78;;;19.58;100.00
6134;BME280;3098;42.678;23.364;2023-06-26T00:12:30;94749.31;;;19.90;100.00
6134;BME280;3098;42.678;23.364;2023-06-26T00:14:58;94748.47;;;19.83;100.00
6134;BME280;3098;42.678;23.364;2023-06-26T00:17:25;94750.38;;;19.82;100.00
6134;BME280;3098;42.678;23.364;2023-06-26T00:19:52;94672.44;;;19.19;100.00
6134;BME280;3098;42.678;23.364;2023-06-26T00:22:20;94752.53;;;19.66;100.00
6134;BME280;3098;42.678;23.364;2023-06-26T00:24:47;94757.97;;;19.73;100.00
6134;BME280;3098;42.678;23.364;2023-06-26T00:27:15;94746.06;;;19.74;100.00
6134;BME280;3098;42.678;23.364;2023-06-26T00:29:42;94725.97;;;19.65;100.00
6134;BME280;3098;42.678;23.364;2023-06-26T00:32:09;94666.25;;;19.15;100.00
6134;BME280;3098;42.678;23.364;2023-06-26T00:34:36;94742.97;;;19.72;100.00
6134;BME280;3098;42.678;23.364;2023-06-26T00:37:03;94732.47;;;19.60;100.00
6134;BME280;3098;42.678;23.364;2023-06-26T00:39:30;94734.50;;;19.70;100.00
6134;BME280;3098;42.678;23.364;2023-06-26T00:41:57;94737.16;;;19.67;100.00
6134;BME280;3098;42.678;23.364;2023-06-26T00:44:25;94731.78;;;19.70;100.00
6134;BME280;3098;42.678;23.364;2023-06-26T00:46:52;94739.50;;;19.72;100.00
6134;BME280;3098;42.678;23.364;2023-06-26T00:49:20;94735.25;;;19.71;100.00
6134;BME280;3098;42.678;23.364;2023-06-26T00:51:49;94725.97;;;19.65;100.00
6134;BME280;3098;42.678;23.364;2023-06-26T00:54:16;94677.19;;;19.33;100.00
6134;BME280;3098;42.678;23.364;2023-06-26T00:56:45;94733.66;;;19.63;100.00
6134;BME280;3098;42.678;23.364;2023-06-26T00:59:13;94720.28;;;19.73;100.00
6134;BME280;3098;42.678;23.364;2023-06-26T01:01:42;94723.66;;;19.63;100.00
6134;BME280;3098;42.678;23.364;2023-06-26T01:04:09;94683.50;;;19.44;100.00
6134;BME280;3098;42.678;23.364;2023-06-26T01:06:43;94703.56;;;19.54;100.00
6134;BME280;3098;42.678;23.364;2023-06-26T01:09:15;94709.28;;;19.48;100.00
6134;BME280;3098;42.678;23.364;2023-06-26T01:11:42;94702.00;;;19.49;100.00
6134;BME280;3098;42.678;23.364;2023-06-26T01:14:09;94713.03;;;19.40;100.00
6134;BME280;3098;42.678;23.364;2023-06-26T01:16:37;94714.44;;;19.31;100.00
6134;BME280;3098;42.678;23.364;2023-06-26T01:19:09;94715.25;;;19.35;100.00
6134;BME280;3098;42.678;23.364;2023-06-26T01:21:40;94666.78;;;18.94;100.00
6134;BME280;3098;42.678;23.364;2023-06-26T01:24:15;94703.84;;;19.12;100.00
6134;BME280;3098;42.678;23.364;2023-06-26T01:26:48;94705.88;;;19.22;100.00
6134;BME280;3098;42.678;23.364;2023-06-26T01:29:16;94710.44;;;19.18;100.00
6134;BME280;3098;42.678;23.364;2023-06-26T01:31:46;94701.94;;;19.12;100.00
6134;BME280;3098;42.678;23.364;2023-06-26T01:34:15;94639.16;;;18.64;100.00
6134;BME280;3098;42.678;23.364;2023-06-26T01:36:44;94698.69;;;19.00;100.00
6134;BME280;3098;42.678;23.364;2023-06-26T01:39:14;94705.63;;;19.01;100.00
6134;BME280;3098;42.678;23.364;2023-06-26T01:41:41;94684.41;;;18.92;100.00
6134;BME280;3098;42.678;23.364;2023-06-26T01:44:17;94690.44;;;18.85;100.00
6134;BME280;3098;42.678;23.364;2023-06-26T01:46:54;94682.94;;;18.68;100.00
6134;BME280;3098;42.678;23.364;2023-06-26T01:49:31;94707.75;;;18.88;100.00
6134;BME280;3098;42.678;23.364;2023-06-26T01:52:07;94709.19;;;18.78;100.00
6134;BME280;3098;42.678;23.364;2023-06-26T01:54:41;94713.38;;;18.76;100.00
6134;BME280;3098;42.678;23.364;2023-06-26T01:57:10;94710.97;;;18.67;100.00
6134;BME280;3098;42.678;23.364;2023-06-26T01:59:40;94691.19;;;18.56;100.00
6134;BME280;3098;42.678;23.364;2023-06-26T02:02:08;94683.16;;;18.56;100.00
6134;BME280;3098;42.678;23.364;2023-06-26T02:04:35;94713.78;;;18.78;100.00
6134;BME280;3098;42.678;23.364;2023-06-26T02:07:03;94711.16;;;18.81;100.00
6134;BME280;3098;42.678;23.364;2023-06-26T02:09:30;94707.50;;;18.67;100.00
6134;BME280;3098;42.678;23.364;2023-06-26T02:11:57;94699.00;;;18.65;100.00
6134;BME280;3098;42.678;23.364;2023-06-26T02:14:23;94713.00;;;18.77;100.00
6134;BME280;3098;42.678;23.364;2023-06-26T02:16:52;94693.69;;;18.68;100.00
6134;BME280;3098;42.678;23.364;2023-06-26T02:19:18;94726.44;;;18.77;100.00
6134;BME280;3098;42.678;23.364;2023-06-26T02:21:47;94713.72;;;18.74;100.00
6134;BME280;3098;42.678;23.364;2023-06-26T02:24:14;94716.00;;;18.72;100.00
6134;BME280;3098;42.678;23.364;2023-06-26T02:26:41;94718.31;;;18.74;100.00
6134;BME280;3098;42.678;23.364;2023-06-26T02:29:08;94723.22;;;18.68;100.00
6134;BME280;3098;42.678;23.364;2023-06-26T02:31:35;94710.97;;;18.67;100.00
6134;BME280;3098;42.678;23.364;2023-06-26T02:34:03;94719.09;;;18.74;100.00
6134;BME280;3098;42.678;23.364;2023-06-26T02:36:30;94690.25;;;18.45;100.00
6134;BME280;3098;42.678;23.364;2023-06-26T02:38:57;94710.19;;;18.70;100.00
6134;BME280;3098;42.678;23.364;2023-06-26T02:41:24;94697.09;;;18.65;100.00
6134;BME280;3098;42.678;23.364;2023-06-26T02:43:51;94712.84;;;18.67;100.00
6134;BME280;3098;42.678;23.364;2023-06-26T02:46:18;94716.31;;;18.67;100.00
6134;BME280;3098;42.678;23.364;2023-06-26T02:48:45;94719.88;;;18.75;100.00
6134;BME280;3098;42.678;23.364;2023-06-26T02:51:13;94720.59;;;18.72;100.00
6134;BME280;3098;42.678;23.364;2023-06-26T02:53:40;94705.38;;;18.53;100.00
6134;BME280;3098;42.678;23.364;2023-06-26T02:56:07;94714.78;;;18.66;100.00
6134;BME280;3098;42.678;23.364;2023-06-26T02:58:34;94725.50;;;18.66;100.00
6134;BME280;3098;42.678;23.364;2023-06-26T03:01:01;94722.44;;;18.64;100.00
6134;BME280;3098;42.678;23.364;2023-06-26T03:03:28;94689.00;;;18.39;100.00
6134;BME280;3098;42.678;23.364;2023-06-26T03:05:55;94707.63;;;18.51;100.00
6134;BME280;3098;42.678;23.364;2023-06-26T03:08:23;94720.75;;;18.56;100.00
6134;BME280;3098;42.678;23.364;2023-06-26T03:10:50;94703.00;;;18.48;100.00
6134;BME280;3098;42.678;23.364;2023-06-26T03:13:17;94708.00;;;18.50;100.00
6134;BME280;3098;42.678;23.364;2023-06-26T03:15:44;94723.56;;;18.63;100.00
6134;BME280;3098;42.678;23.364;2023-06-26T03:18:11;94722.25;;;18.54;100.00
6134;BME280;3098;42.678;23.364;2023-06-26T03:20:38;94723.19;;;18.65;100.00
6134;BME280;3098;42.678;23.364;2023-06-26T03:23:05;94709.03;;;18.68;100.00
6134;BME280;3098;42.678;23.364;2023-06-26T03:25:33;94700.47;;;18.88;100.00
6134;BME280;3098;42.678;23.364;2023-06-26T03:28:00;94716.78;;;19.32;100.00
6134;BME280;3098;42.678;23.364;2023-06-26T03:30:27;94699.59;;;19.40;100.00
6134;BME280;3098;42.678;23.364;2023-06-26T03:32:54;94712.81;;;19.56;100.00
6134;BME280;3098;42.678;23.364;2023-06-26T03:35:21;94708.03;;;19.39;100.00
6134;BME280;3098;42.678;23.364;2023-06-26T03:37:49;94679.44;;;19.27;100.00
6134;BME280;3098;42.678;23.364;2023-06-26T03:40:15;94687.09;;;19.25;100.00
6134;BME280;3098;42.678;23.364;2023-06-26T03:42:44;94679.31;;;19.17;100.00
6134;BME280;3098;42.678;23.364;2023-06-26T03:45:11;94708.25;;;19.27;100.00
6134;BME280;3098;42.678;23.364;2023-06-26T03:47:38;94715.03;;;19.17;100.00
6134;BME280;3098;42.678;23.364;2023-06-26T03:50:06;94719.56;;;19.10;100.00
6134;BME280;3098;42.678;23.364;2023-06-26T03:52:33;94699.97;;;19.09;100.00
6134;BME280;3098;42.678;23.364;2023-06-26T03:55:01;94714.28;;;19.17;100.00
6134;BME280;3098;42.678;23.364;2023-06-26T03:57:28;94712.41;;;19.21;100.00
6134;BME280;3098;42.678;23.364;2023-06-26T03:59:56;94705.63;;;19.34;100.00
6134;BME280;3098;42.678;23.364;2023-06-26T04:02:23;94691.72;;;19.62;100.00
6134;BME280;3098;42.678;23.364;2023-06-26T04:04:50;94677.41;;;19.91;100.00
6134;BME280;3098;42.678;23.364;2023-06-26T04:07:17;94680.13;;;19.94;100.00
6134;BME280;3098;42.678;23.364;2023-06-26T04:09:44;94697.97;;;20.13;100.00
6134;BME280;3098;42.678;23.364;2023-06-26T04:12:11;94632.03;;;20.40;100.00
6134;BME280;3098;42.678;23.364;2023-06-26T04:14:38;94624.97;;;21.01;100.00
6134;BME280;3098;42.678;23.364;2023-06-26T04:17:06;94651.41;;;21.82;100.00
6134;BME280;3098;42.678;23.364;2023-06-26T04:19:33;94685.41;;;22.39;100.00
6134;BME280;3098;42.678;23.364;2023-06-26T04:22:01;94668.00;;;22.68;100.00
6134;BME280;3098;42.678;23.364;2023-06-26T04:24:28;94640.91;;;22.82;100.00
6134;BME280;3098;42.678;23.364;2023-06-26T04:26:55;94695.75;;;22.90;100.00
6134;BME280;3098;42.678;23.364;2023-06-26T04:29:22;94648.69;;;21.74;100.00
6134;BME280;3098;42.678;23.364;2023-06-26T04:31:51;94700.34;;;21.66;100.00
6134;BME280;3098;42.678;23.364;2023-06-26T04:34:19;94702.59;;;21.43;100.00
6134;BME280;3098;42.678;23.364;2023-06-26T04:36:46;94706.09;;;21.47;100.00
6134;BME280;3098;42.678;23.364;2023-06-26T04:39:13;94620.63;;;20.68;100.00
6134;BME280;3098;42.678;23.364;2023-06-26T04:41:41;94673.88;;;20.89;100.00
6134;BME280;3098;42.678;23.364;2023-06-26T04:44:08;94709.81;;;21.17;100.00
6134;BME280;3098;42.678;23.364;2023-06-26T04:46:35;94702.81;;;21.02;100.00
6134;BME280;3098;42.678;23.364;2023-06-26T04:49:02;94701.59;;;20.86;100.00
6134;BME280;3098;42.678;23.364;2023-06-26T04:51:30;94686.72;;;20.48;100.00
6134;BME280;3098;42.678;23.364;2023-06-26T04:53:57;94688.69;;;20.58;100.00
6134;BME280;3098;42.678;23.364;2023-06-26T04:56:24;94680.75;;;20.79;100.00
6134;BME280;3098;42.678;23.364;2023-06-26T04:58:51;94705.81;;;20.90;100.00
6134;BME280;3098;42.678;23.364;2023-06-26T05:01:18;94712.03;;;20.98;100.00
6134;BME280;3098;42.678;23.364;2023-06-26T05:03:45;94688.66;;;21.19;100.00
6134;BME280;3098;42.678;23.364;2023-06-26T05:06:13;94711.81;;;21.28;100.00
6134;BME280;3098;42.678;23.364;2023-06-26T05:08:41;94708.03;;;21.60;100.00
6134;BME280;3098;42.678;23.364;2023-06-26T05:11:08;94697.63;;;21.52;100.00
6134;BME280;3098;42.678;23.364;2023-06-26T05:13:35;94716.47;;;21.34;100.00
6134;BME280;3098;42.678;23.364;2023-06-26T05:16:02;94704.16;;;21.54;100.00
6134;BME280;3098;42.678;23.364;2023-06-26T05:18:29;94716.19;;;21.78;100.00
6134;BME280;3098;42.678;23.364;2023-06-26T05:20:57;94718.44;;;21.55;100.00
6134;BME280;3098;42.678;23.364;2023-06-26T05:23:25;94701.06;;;21.42;100.00
6134;BME280;3098;42.678;23.364;2023-06-26T05:25:54;94708.75;;;21.33;100.00
6134;BME280;3098;42.678;23.364;2023-06-26T05:28:22;94729.06;;;21.12;100.00
6134;BME280;3098;42.678;23.364;2023-06-26T05:30:50;94724.06;;;21.14;100.00
6134;BME280;3098;42.678;23.364;2023-06-26T05:33:18;94709.72;;;21.03;100.00
6134;BME280;3098;42.678;23.364;2023-06-26T05:35:45;94710.69;;;21.36;100.00
6134;BME280;3098;42.678;23.364;2023-06-26T05:38:13;94642.69;;;20.95;100.00
6134;BME280;3098;42.678;23.364;2023-06-26T05:40:41;94724.28;;;21.74;100.00
6134;BME280;3098;42.678;23.364;2023-06-26T05:43:10;94715.84;;;21.97;100.00
6134;BME280;3098;42.678;23.364;2023-06-26T05:45:37;94718.19;;;22.06;100.00
6134;BME280;3098;42.678;23.364;2023-06-26T05:48:04;94720.06;;;21.81;100.00
6134;BME280;3098;42.678;23.364;2023-06-26T05:50:32;94726.25;;;21.85;100.00
6134;BME280;3098;42.678;23.364;2023-06-26T05:53:00;94694.25;;;21.97;100.00
6134;BME280;3098;42.678;23.364;2023-06-26T05:55:29;94714.34;;;22.17;100.00
6134;BME280;3098;42.678;23.364;2023-06-26T05:57:58;94718.19;;;22.34;100.00
6134;BME280;3098;42.678;23.364;2023-06-26T06:00:28;94735.19;;;22.52;100.00
6134;BME280;3098;42.678;23.364;2023-06-26T06:02:55;94729.00;;;22.38;100.00
6134;BME280;3098;42.678;23.364;2023-06-26T06:05:22;94718.19;;;22.23;100.00
6134;BME280;3098;42.678;23.364;2023-06-26T06:07:50;94729.78;;;22.34;100.00
6134;BME280;3098;42.678;23.364;2023-06-26T06:10:17;94709.31;;;22.09;100.00
6134;BME280;3098;42.678;23.364;2023-06-26T06:12:44;94733.63;;;22.37;100.00
6134;BME280;3098;42.678;23.364;2023-06-26T06:15:11;94640.19;;;21.69;100.00
6134;BME280;3098;42.678;23.364;2023-06-26T06:17:39;94729.94;;;23.53;100.00
6134;BME280;3098;42.678;23.364;2023-06-26T06:20:06;94737.09;;;23.91;100.00
6134;BME280;3098;42.678;23.364;2023-06-26T06:22:33;94710.38;;;24.93;100.00
6134;BME280;3098;42.678;23.364;2023-06-26T06:25:00;94703.50;;;25.52;100.00
6134;BME280;3098;42.678;23.364;2023-06-26T06:27:27;94726.34;;;26.42;91.80
6134;BME280;3098;42.678;23.364;2023-06-26T06:29:55;94726.25;;;25.65;93.74
6134;BME280;3098;42.678;23.364;2023-06-26T06:32:22;94728.78;;;25.12;95.79
6134;BME280;3098;42.678;23.364;2023-06-26T06:34:51;94708.00;;;24.06;100.00
6134;BME280;3098;42.678;23.364;2023-06-26T06:37:18;94715.06;;;24.44;100.00
6134;BME280;3098;42.678;23.364;2023-06-26T06:39:45;94714.91;;;24.66;100.00
6134;BME280;3098;42.678;23.364;2023-06-26T06:42:11;94717.59;;;25.06;97.29
6134;BME280;3098;42.678;23.364;2023-06-26T06:44:39;94678.50;;;24.63;96.15
6134;BME280;3098;42.678;23.364;2023-06-26T06:47:06;94723.63;;;24.87;96.60
6134;BME280;3098;42.678;23.364;2023-06-26T06:49:32;94704.91;;;24.55;97.45
6134;BME280;3098;42.678;23.364;2023-06-26T06:52:01;94724.31;;;25.93;91.68
6134;BME280;3098;42.678;23.364;2023-06-26T06:54:28;94717.22;;;27.61;80.10
6134;BME280;3098;42.678;23.364;2023-06-26T06:56:55;94723.25;;;28.40;72.70
6134;BME280;3098;42.678;23.364;2023-06-26T06:59:22;94718.69;;;27.82;72.65
6134;BME280;3098;42.678;23.364;2023-06-26T07:01:49;94705.56;;;27.41;72.58
6134;BME280;3098;42.678;23.364;2023-06-26T07:04:16;94690.63;;;27.06;75.27
6134;BME280;3098;42.678;23.364;2023-06-26T07:06:43;94685.19;;;27.06;74.66
6134;BME280;3098;42.678;23.364;2023-06-26T07:09:11;94687.50;;;26.65;73.85
6134;BME280;3098;42.678;23.364;2023-06-26T07:11:38;94653.63;;;25.96;74.44
6134;BME280;3098;42.678;23.364;2023-06-26T07:14:05;94702.59;;;26.43;75.78
6134;BME280;3098;42.678;23.364;2023-06-26T07:16:31;94706.47;;;27.11;72.22
6134;BME280;3098;42.678;23.364;2023-06-26T07:18:58;94688.34;;;26.08;75.36
6134;BME280;3098;42.678;23.364;2023-06-26T07:21:25;94714.56;;;26.95;74.06
6134;BME280;3098;42.678;23.364;2023-06-26T07:23:52;94715.41;;;26.92;75.10
6134;BME280;3098;42.678;23.364;2023-06-26T07:26:21;94710.53;;;27.82;68.91
6134;BME280;3098;42.678;23.364;2023-06-26T07:28:48;94705.75;;;27.70;69.54
6134;BME280;3098;42.678;23.364;2023-06-26T07:31:16;94714.13;;;26.27;73.21
6134;BME280;3098;42.678;23.364;2023-06-26T07:33:43;94703.44;;;27.49;70.28
6134;BME280;3098;42.678;23.364;2023-06-26T07:36:10;94700.13;;;28.13;67.75
6134;BME280;3098;42.678;23.364;2023-06-26T07:38:37;94623.38;;;26.64;69.14
6134;BME280;3098;42.678;23.364;2023-06-26T07:41:04;94683.16;;;28.21;68.69
6134;BME280;3098;42.678;23.364;2023-06-26T07:43:32;94703.09;;;29.69;63.99
6134;BME280;3098;42.678;23.364;2023-06-26T07:45:59;94668.16;;;29.35;61.68
6134;BME280;3098;42.678;23.364;2023-06-26T07:48:26;94696.81;;;28.70;61.30
6134;BME280;3098;42.678;23.364;2023-06-26T07:50:53;94707.88;;;27.78;62.54
6134;BME280;3098;42.678;23.364;2023-06-26T07:53:20;94700.53;;;27.36;64.57
6134;BME280;3098;42.678;23.364;2023-06-26T07:55:47;94710.75;;;27.32;64.03
6134;BME280;3098;42.678;23.364;2023-06-26T07:58:14;94691.13;;;28.32;62.07
6134;BME280;3098;42.678;23.364;2023-06-26T08:00:42;94712.22;;;29.21;60.27
6134;BME280;3098;42.678;23.364;2023-06-26T08:03:09;94706.25;;;30.94;53.61
6134;BME280;3098;42.678;23.364;2023-06-26T08:05:36;94715.91;;;30.39;56.00
6134;BME280;3098;42.678;23.364;2023-06-26T08:08:03;94642.97;;;30.45;53.74
6134;BME280;3098;42.678;23.364;2023-06-26T08:10:30;94657.22;;;27.81;57.10
6134;BME280;3098;42.678;23.364;2023-06-26T08:12:57;94684.31;;;28.24;58.74
6134;BME280;3098;42.678;23.364;2023-06-26T08:15:24;94627.72;;;27.76;59.39
6134;BME280;3098;42.678;23.364;2023-06-26T08:17:52;94677.84;;;29.24;56.18
6134;BME280;3098;42.678;23.364;2023-06-26T08:20:19;94700.06;;;29.09;55.24
6134;BME280;3098;42.678;23.364;2023-06-26T08:22:47;94703.16;;;29.12;55.57
6134;BME280;3098;42.678;23.364;2023-06-26T08:25:16;94707.72;;;29.31;55.63
6134;BME280;3098;42.678;23.364;2023-06-26T08:27:43;94707.22;;;29.20;56.34
6134;BME280;3098;42.678;23.364;2023-06-26T08:30:10;94690.94;;;28.71;57.51
6134;BME280;3098;42.678;23.364;2023-06-26T08:32:38;94644.31;;;28.94;57.32
6134;BME280;3098;42.678;23.364;2023-06-26T08:35:07;94708.13;;;30.97;52.89
6134;BME280;3098;42.678;23.364;2023-06-26T08:37:35;94710.50;;;30.60;52.10
6134;BME280;3098;42.678;23.364;2023-06-26T08:40:03;94693.88;;;29.50;54.47
6134;BME280;3098;42.678;23.364;2023-06-26T08:42:30;94709.41;;;27.79;57.19
6134;BME280;3098;42.678;23.364;2023-06-26T08:44:57;94662.69;;;26.59;60.40
6134;BME280;3098;42.678;23.364;2023-06-26T08:47:26;94703.38;;;28.72;57.03
6134;BME280;3098;42.678;23.364;2023-06-26T08:50:02;94704.97;;;29.59;54.31
6134;BME280;3098;42.678;23.364;2023-06-26T08:52:35;94650.91;;;29.38;53.46
6134;BME280;3098;42.678;23.364;2023-06-26T08:55:08;94679.22;;;29.32;53.22
6134;BME280;3098;42.678;23.364;2023-06-26T08:57:36;94705.31;;;28.56;55.80
6134;BME280;3098;42.678;23.364;2023-06-26T09:00:05;94647.44;;;27.08;59.57
6134;BME280;3098;42.678;23.364;2023-06-26T09:02:34;94701.00;;;27.54;62.13
6134;BME280;3098;42.678;23.364;2023-06-26T09:05:02;94676.53;;;27.51;60.70
6134;BME280;3098;42.678;23.364;2023-06-26T09:07:29;94699.97;;;26.86;60.29
6134;BME280;3098;42.678;23.364;2023-06-26T09:09:58;94700.13;;;28.13;57.47
6134;BME280;3098;42.678;23.364;2023-06-26T09:12:27;94696.06;;;28.69;55.54
6134;BME280;3098;42.678;23.364;2023-06-26T09:14:54;94663.22;;;28.08;56.82
6134;BME280;3098;42.678;23.364;2023-06-26T09:17:24;94686.16;;;29.04;53.58
6134;BME280;3098;42.678;23.364;2023-06-26T09:19:51;94662.53;;;27.68;55.31
6134;BME280;3098;42.678;23.364;2023-06-26T09:22:18;94674.38;;;27.03;59.27
6134;BME280;3098;42.678;23.364;2023-06-26T09:24:45;94658.53;;;26.98;61.54
6134;BME280;3098;42.678;23.364;2023-06-26T09:27:14;94696.06;;;26.63;63.01
6134;BME280;3098;42.678;23.364;2023-06-26T09:29:42;94699.25;;;27.24;61.86
6134;BME280;3098;42.678;23.364;2023-06-26T09:32:12;94680.44;;;26.67;61.64
6134;BME280;3098;42.678;23.364;2023-06-26T09:34:41;94694.66;;;27.41;61.14
6134;BME280;3098;42.678;23.364;2023-06-26T09:37:12;94689.09;;;28.00;60.40
6134;BME280;3098;42.678;23.364;2023-06-26T09:39:39;94691.19;;;28.44;57.53
6134;BME280;3098;42.678;23.364;2023-06-26T09:42:07;94663.25;;;26.94;60.62
6134;BME280;3098;42.678;23.364;2023-06-26T09:44:36;94690.25;;;26.38;63.92
6134;BME280;3098;42.678;23.364;2023-06-26T09:47:04;94688.53;;;25.98;64.92
6134;BME280;3098;42.678;23.364;2023-06-26T09:49:31;94635.16;;;25.27;66.37
6134;BME280;3098;42.678;23.364;2023-06-26T09:52:00;94691.19;;;26.01;64.71
6134;BME280;3098;42.678;23.364;2023-06-26T09:54:28;94687.81;;;25.94;64.71
6134;BME280;3098;42.678;23.364;2023-06-26T09:57:07;94633.31;;;25.78;65.70
6134;BME280;3098;42.678;23.364;2023-06-26T09:59:35;94654.56;;;25.59;64.87
6134;BME280;3098;42.678;23.364;2023-06-26T10:02:03;94702.41;;;25.12;65.92
6134;BME280;3098;42.678;23.364;2023-06-26T10:04:30;94702.47;;;25.43;67.18
6134;BME280;3098;42.678;23.364;2023-06-26T10:06:58;94691.38;;;25.60;65.97
6134;BME280;3098;42.678;23.364;2023-06-26T10:09:27;94671.56;;;25.63;65.36
6134;BME280;3098;42.678;23.364;2023-06-26T10:11:57;94686.25;;;25.36;66.22
6134;BME280;3098;42.678;23.364;2023-06-26T10:14:26;94691.69;;;25.36;66.10
6134;BME280;3098;42.678;23.364;2023-06-26T10:16:57;94697.50;;;25.68;64.77
6134;BME280;3098;42.678;23.364;2023-06-26T10:19:25;94687.44;;;25.65;64.09
6134;BME280;3098;42.678;23.364;2023-06-26T10:21:54;94626.19;;;24.63;65.74
6134;BME280;3098;42.678;23.364;2023-06-26T10:24:23;94697.44;;;24.67;67.63
6134;BME280;3098;42.678;23.364;2023-06-26T10:26:52;94673.16;;;24.04;69.75
6134;BME280;3098;42.678;23.364;2023-06-26T10:29:25;94694.16;;;23.90;71.26
6134;BME280;3098;42.678;23.364;2023-06-26T10:31:57;94696.91;;;23.83;73.66
6134;BME280;3098;42.678;23.364;2023-06-26T10:34:25;94693.41;;;23.86;71.27
6134;BME280;3098;42.678;23.364;2023-06-26T10:36:58;94694.56;;;23.88;69.65
6134;BME280;3098;42.678;23.364;2023-06-26T10:39:26;94697.72;;;23.76;69.25
6134;BME280;3098;42.678;23.364;2023-06-26T10:41:54;94695.31;;;23.92;68.82
6134;BME280;3098;42.678;23.364;2023-06-26T10:44:21;94694.41;;;24.13;67.79
6134;BME280;3098;42.678;23.364;2023-06-26T10:46:49;94659.25;;;23.99;67.55
6134;BME280;3098;42.678;23.364;2023-06-26T10:49:19;94670.44;;;24.04;67.03
6134;BME280;3098;42.678;23.364;2023-06-26T10:51:47;94665.16;;;23.87;67.43
6134;BME280;3098;42.678;23.364;2023-06-26T10:54:15;94678.00;;;24.31;66.93
6134;BME280;3098;42.678;23.364;2023-06-26T10:56:43;94592.13;;;23.73;69.62
6134;BME280;3098;42.678;23.364;2023-06-26T10:59:13;94673.47;;;24.17;72.77
6134;BME280;3098;42.678;23.364;2023-06-26T11:01:41;94659.31;;;23.92;73.42
6134;BME280;3098;42.678;23.364;2023-06-26T11:04:08;94635.50;;;23.69;72.56
6134;BME280;3098;42.678;23.364;2023-06-26T11:06:38;94674.28;;;24.07;71.87
6134;BME280;3098;42.678;23.364;2023-06-26T11:09:18;94633.28;;;24.12;71.54
6134;BME280;3098;42.678;23.364;2023-06-26T11:12:00;94649.72;;;24.73;70.66
6134;BME280;3098;42.678;23.364;2023-06-26T11:14:36;94661.31;;;24.80;69.40
6134;BME280;3098;42.678;23.364;2023-06-26T11:17:04;94658.28;;;25.08;67.82
6134;BME280;3098;42.678;23.364;2023-06-26T11:19:31;94674.78;;;25.55;67.70
6134;BME280;3098;42.678;23.364;2023-06-26T11:22:02;94663.88;;;25.25;65.77
6134;BME280;3098;42.678;23.364;2023-06-26T11:24:29;94612.69;;;24.96;65.98
6134;BME280;3098;42.678;23.364;2023-06-26T11:27:02;94666.22;;;25.83;64.26
6134;BME280;3098;42.678;23.364;2023-06-26T11:29:31;94653.84;;;26.98;61.22
6134;BME280;3098;42.678;23.364;2023-06-26T11:32:00;94662.25;;;26.41;60.43
6134;BME280;3098;42.678;23.364;2023-06-26T11:34:30;94658.44;;;26.81;59.37
6134;BME280;3098;42.678;23.364;2023-06-26T11:36:57;94652.81;;;26.92;59.13
6134;BME280;3098;42.678;23.364;2023-06-26T11:39:28;94654.72;;;26.49;59.45
6134;BME280;3098;42.678;23.364;2023-06-26T11:41:57;94642.44;;;25.64;60.46
6134;BME280;3098;42.678;23.364;2023-06-26T11:44:24;94626.47;;;25.09;60.84
6134;BME280;3098;42.678;23.364;2023-06-26T11:46:56;94631.78;;;25.46;60.09
6134;BME280;3098;42.678;23.364;2023-06-26T11:49:24;94636.50;;;25.73;61.00
6134;BME280;3098;42.678;23.364;2023-06-26T11:51:52;94656.59;;;26.05;61.07
6134;BME280;3098;42.678;23.364;2023-06-26T11:54:25;94658.03;;;26.13;60.22
6134;BME280;3098;42.678;23.364;2023-06-26T11:56:54;94647.34;;;26.49;60.23
6134;BME280;3098;42.678;23.364;2023-06-26T11:59:23;94632.44;;;26.77;58.65
6134;BME280;3098;42.678;23.364;2023-06-26T12:01:51;94649.75;;;27.10;57.65
6134;BME280;3098;42.678;23.364;2023-06-26T12:04:20;94631.09;;;26.65;57.99
6134;BME280;3098;42.678;23.364;2023-06-26T12:06:49;94626.63;;;26.09;59.47
6134;BME280;3098;42.678;23.364;2023-06-26T12:09:18;94628.09;;;25.63;61.68
6134;BME280;3098;42.678;23.364;2023-06-26T12:11:47;94644.13;;;26.31;62.29
6134;BME280;3098;42.678;23.364;2023-06-26T12:14:17;94638.94;;;26.17;58.76
6134;BME280;3098;42.678;23.364;2023-06-26T12:16:45;94639.50;;;26.05;58.92
6134;BME280;3098;42.678;23.364;2023-06-26T12:19:12;94646.94;;;26.51;59.50
6134;BME280;3098;42.678;23.364;2023-06-26T12:21:48;94634.47;;;26.73;57.57
6134;BME280;3098;42.678;23.364;2023-06-26T12:24:20;94648.88;;;26.50;58.21
6134;BME280;3098;42.678;23.364;2023-06-26T12:26:51;94622.13;;;26.45;57.68
6134;BME280;3098;42.678;23.364;2023-06-26T12:29:20;94649.09;;;26.13;59.10
6134;BME280;3098;42.678;23.364;2023-06-26T12:31:51;94627.78;;;26.35;59.72
6134;BME280;3098;42.678;23.364;2023-06-26T12:34:20;94650.38;;;26.05;58.67
6134;BME280;3098;42.678;23.364;2023-06-26T12:36:48;94654.03;;;25.95;58.16
6134;BME280;3098;42.678;23.364;2023-06-26T12:39:17;94622.91;;;25.73;57.67
6134;BME280;3098;42.678;23.364;2023-06-26T12:41:48;94629.47;;;26.02;58.94
6134;BME280;3098;42.678;23.364;2023-06-26T12:44:21;94652.19;;;25.88;59.91
6134;BME280;3098;42.678;23.364;2023-06-26T12:46:54;94644.66;;;25.73;61.11
6134;BME280;3098;42.678;23.364;2023-06-26T12:49:29;94635.91;;;25.31;62.75
6134;BME280;3098;42.678;23.364;2023-06-26T12:51:56;94651.63;;;25.13;62.57
6134;BME280;3098;42.678;23.364;2023-06-26T12:54:23;94653.66;;;25.05;64.11
6134;BME280;3098;42.678;23.364;2023-06-26T12:56:50;94646.56;;;24.78;65.01
6134;BME280;3098;42.678;23.364;2023-06-26T12:59:17;94577.78;;;24.95;65.30
6134;BME280;3098;42.678;23.364;2023-06-26T13:01:45;94629.53;;;25.71;63.19
6134;BME280;3098;42.678;23.364;2023-06-26T13:04:13;94643.97;;;25.92;62.88
6134;BME280;3098;42.678;23.364;2023-06-26T13:06:40;94648.44;;;25.79;63.61
6134;BME280;3098;42.678;23.364;2023-06-26T13:09:07;94649.69;;;25.44;63.90